Time;durP1;ratioP1;P1;durP2;ratioP2;P2;SDS_P1;SDS_P2;PMS_P1;PMS_P2;Temp;Humidity;BMP_temperature;BMP_pressure;BME280_temperature;BME280_humidity;BME280_pressure;Samples;Min_cycle;Max_cycle;Signal;HPM_P1;HPM_P2
2022/09/04 00:02:08;;;;;;;24.00;13.17;;;;;;;14.69;100.00;101371.81;7391109;19;20414;-53
2022/09/04 00:04:41;;;;;;;24.27;15.80;;;;;;;14.77;100.00;101386.78;7397153;19;20423;-54
2022/09/04 00:07:19;;;;;;;33.83;20.17;;;;;;;14.75;100.00;101385.84;7396558;19;20930;-53
2022/09/04 00:09:55;;;;;;;14.07;8.63;;;;;;;14.78;100.00;101389.44;7387735;19;20398;-55
2022/09/04 00:12:30;;;;;;;5.77;2.20;;;;;;;14.88;100.00;101400.16;7396279;19;20387;-57
2022/09/04 00:15:04;;;;;;;6.80;3.20;;;;;;;14.64;100.00;101401.91;7387746;19;20415;-57
2022/09/04 00:17:39;;;;;;;12.17;6.87;;;;;;;14.83;100.00;101400.00;7395294;19;20401;-55
2022/09/04 00:20:12;;;;;;;8.57;5.17;;;;;;;14.81;100.00;101399.94;7390198;19;20411;-56
2022/09/04 00:22:51;;;;;;;5.70;2.90;;;;;;;14.96;100.00;101404.78;7395564;19;20415;-55
2022/09/04 00:25:24;;;;;;;6.53;1.80;;;;;;;14.64;100.00;101412.31;7385296;19;20458;-55
2022/09/04 00:28:05;;;;;;;4.40;1.63;;;;;;;14.26;100.00;101391.91;7395760;19;20392;-56
2022/09/04 00:30:36;;;;;;;4.63;1.73;;;;;;;14.07;100.00;101386.88;7388470;19;20416;-47
2022/09/04 00:33:13;;;;;;;6.60;2.30;;;;;;;13.97;100.00;101380.44;7395429;19;20384;-53
2022/09/04 00:35:48;;;;;;;6.07;2.30;;;;;;;13.90;100.00;101369.84;7387722;19;20422;-51
2022/09/04 00:38:32;;;;;;;6.07;1.90;;;;;;;13.88;100.00;101368.91;7393818;19;20387;-53
2022/09/04 00:41:07;;;;;;;2.83;1.10;;;;;;;13.80;100.00;101361.66;7388997;19;20415;-55
2022/09/04 00:44:06;;;;;;;4.40;1.70;;;;;;;13.78;100.00;101353.81;7394876;19;21239;-53
2022/09/04 00:47:04;;;;;;;4.57;1.57;;;;;;;13.70;100.00;101345.72;7387579;19;20949;-57
2022/09/04 00:49:44;;;;;;;5.03;1.90;;;;;;;13.68;100.00;101346.53;7395689;19;20392;-53
2022/09/04 00:52:24;;;;;;;4.80;1.50;;;;;;;13.67;100.00;101336.94;7394433;19;20419;-51
2022/09/04 00:55:19;;;;;;;5.97;2.40;;;;;;;13.62;100.00;101337.69;7382531;19;20955;-53
2022/09/04 00:58:00;;;;;;;4.27;1.90;;;;;;;13.67;100.00;101330.06;7394448;19;20380;-53
2022/09/04 01:00:32;;;;;;;6.87;1.90;;;;;;;13.54;100.00;101328.69;7385074;19;20426;-53
2022/09/04 01:03:40;;;;;;;4.90;2.00;;;;;;;13.56;100.00;101327.06;7394682;19;20386;-56
2022/09/04 01:06:20;;;;;;;6.07;2.63;;;;;;;13.53;100.00;101321.75;7383602;19;20414;-54
2022/09/04 01:09:17;;;;;;;4.20;2.37;;;;;;;13.49;100.00;101330.25;7394690;19;20379;-53
2022/09/04 01:11:54;;;;;;;8.50;3.03;;;;;;;13.43;100.00;101327.41;7386198;19;20436;-50
2022/09/04 01:14:33;;;;;;;10.27;2.50;;;;;;;13.48;100.00;101321.59;7393523;19;20418;-49
2022/09/04 01:17:12;;;;;;;8.63;2.20;;;;;;;13.44;100.00;101326.56;7386588;19;20441;-49
2022/09/04 01:19:51;;;;;;;4.83;1.73;;;;;;;13.31;100.00;101326.09;7387762;19;20394;-58
2022/09/04 01:22:43;;;;;;;3.57;1.23;;;;;;;13.30;100.00;101326.91;7393994;19;20387;-53
2022/09/04 01:25:29;;;;;;;5.30;1.47;;;;;;;13.29;100.00;101337.22;7369181;19;20979;-53
2022/09/04 01:28:05;;;;;;;4.40;2.00;;;;;;;13.32;100.00;101334.72;7394659;19;20390;-56
2022/09/04 01:30:42;;;;;;;7.70;2.03;;;;;;;13.31;100.00;101333.84;7387085;19;20411;-53
2022/09/04 01:33:17;;;;;;;5.13;1.70;;;;;;;13.24;100.00;101327.53;7393451;19;20380;-52
2022/09/04 01:35:54;;;;;;;5.30;1.60;;;;;;;13.21;100.00;101334.31;7384800;19;20424;-52
2022/09/04 01:38:29;;;;;;;4.30;1.90;;;;;;;13.18;100.00;101326.41;7392676;19;20393;-53
2022/09/04 01:41:04;;;;;;;5.73;1.87;;;;;;;13.13;100.00;101328.81;7386171;19;20409;-54
2022/09/04 01:43:36;;;;;;;5.50;2.20;;;;;;;13.15;100.00;101328.88;7393083;19;20411;-53
2022/09/04 01:46:27;;;;;;;4.40;1.63;;;;;;;13.15;100.00;101328.88;7386120;19;20425;-53
2022/09/04 01:49:04;;;;;;;3.00;1.50;;;;;;;13.24;100.00;101324.06;7393439;19;20492;-55
2022/09/04 01:51:39;;;;;;;3.07;1.10;;;;;;;13.17;100.00;101328.13;7387464;19;20446;-52
2022/09/04 01:54:18;;;;;;;3.27;1.57;;;;;;;13.23;100.00;101333.53;7391456;19;20425;-54
2022/09/04 01:56:56;;;;;;;2.70;1.47;;;;;;;13.13;100.00;101335.72;7383261;19;20412;-54
2022/09/04 01:59:32;;;;;;;10.43;1.40;;;;;;;13.12;100.00;101339.13;7393198;19;20394;-54
2022/09/04 02:02:09;;;;;;;3.37;1.73;;;;;;;13.04;100.00;101337.13;7384402;19;20437;-51
2022/09/04 02:04:44;;;;;;;3.97;1.67;;;;;;;13.08;100.00;101326.03;7391408;19;20425;-56
2022/09/04 02:07:22;;;;;;;2.80;1.20;;;;;;;12.96;100.00;101328.13;7392171;19;20416;-51
2022/09/04 02:09:59;;;;;;;3.20;1.43;;;;;;;12.98;100.00;101335.97;7384547;19;20385;-51
2022/09/04 02:12:36;;;;;;;6.70;1.80;;;;;;;12.97;100.00;101335.06;7397753;19;20701;-53
2022/09/04 02:15:14;;;;;;;4.40;1.90;;;;;;;13.03;100.00;101343.09;7384004;19;20765;-54
2022/09/04 02:17:49;;;;;;;3.23;1.47;;;;;;;13.00;100.00;101342.09;7392644;19;20898;-52
2022/09/04 02:20:25;;;;;;;4.87;1.60;;;;;;;13.07;100.00;101342.41;7387515;19;20493;-51
2022/09/04 02:23:04;;;;;;;3.40;1.63;;;;;;;13.10;100.00;101357.19;7392190;19;20914;-55
2022/09/04 02:25:39;;;;;;;3.53;1.47;;;;;;;13.05;100.00;101353.53;7382634;19;20406;-50
2022/09/04 02:28:19;;;;;;;4.87;2.00;;;;;;;12.96;100.00;101360.09;7392794;19;20397;-55
2022/09/04 02:30:58;;;;;;;4.30;1.93;;;;;;;13.01;100.00;101360.28;7386684;19;20486;-53
2022/09/04 02:33:34;;;;;;;10.00;2.00;;;;;;;13.09;100.00;101358.00;7391843;19;20392;-50
2022/09/04 02:36:08;;;;;;;4.57;1.77;;;;;;;13.04;100.00;101370.78;7387330;19;20945;-49
2022/09/04 02:38:44;;;;;;;5.07;2.43;;;;;;;12.97;100.00;101376.50;7391310;19;20391;-53
2022/09/04 02:41:20;;;;;;;4.33;1.70;;;;;;;12.98;100.00;101370.53;7386016;19;20744;-47
2022/09/04 02:43:59;;;;;;;4.50;1.50;;;;;;;13.01;100.00;101373.22;7391399;19;20408;-55
2022/09/04 02:46:36;;;;;;;3.10;1.40;;;;;;;13.01;100.00;101383.59;7385417;19;20421;-52
2022/09/04 02:49:14;;;;;;;4.00;1.90;;;;;;;12.95;100.00;101384.25;7392099;19;20397;-54
2022/09/04 02:52:00;;;;;;;4.57;1.63;;;;;;;12.97;100.00;101386.88;7385518;19;20421;-50
2022/09/04 02:54:50;;;;;;;2.80;1.37;;;;;;;12.99;100.00;101390.44;7390421;19;20408;-51
2022/09/04 02:57:27;;;;;;;5.13;1.70;;;;;;;13.07;100.00;101388.13;7391175;19;20416;-58
2022/09/04 03:00:03;;;;;;;5.50;3.10;;;;;;;13.04;100.00;101399.28;7383841;19;20381;-53
2022/09/04 03:02:37;;;;;;;4.80;1.90;;;;;;;13.02;100.00;101390.53;7391679;19;20399;-55
2022/09/04 03:05:13;;;;;;;4.40;2.00;;;;;;;13.04;100.00;101407.06;7384023;19;20410;-48
2022/09/04 03:07:46;;;;;;;4.43;1.93;;;;;;;13.05;100.00;101406.22;7393924;19;20406;-55
2022/09/04 03:10:18;;;;;;;7.70;1.63;;;;;;;13.03;100.00;101405.25;7391049;19;20418;-53
2022/09/04 03:12:53;;;;;;;4.50;1.70;;;;;;;13.05;100.00;101411.41;7398361;19;20388;-53
2022/09/04 03:15:27;;;;;;;3.83;1.60;;;;;;;13.07;100.00;101414.03;7389293;19;20435;-51
2022/09/04 03:18:04;;;;;;;7.63;2.00;;;;;;;13.13;100.00;101419.47;7398511;19;20397;-51
2022/09/04 03:20:35;;;;;;;4.87;2.00;;;;;;;13.01;100.00;101425.03;7391590;19;20413;-58
2022/09/04 03:23:10;;;;;;;2.57;1.20;;;;;;;12.95;100.00;101419.59;7400836;19;20383;-56
2022/09/04 03:25:52;;;;;;;4.70;2.43;;;;;;;12.92;100.00;101410.00;7382703;19;20412;-54
2022/09/04 03:28:29;;;;;;;4.67;2.20;;;;;;;12.87;100.00;101410.63;7398293;19;20399;-55
2022/09/04 03:31:03;;;;;;;7.63;2.37;;;;;;;12.89;100.00;101402.09;7388257;19;20415;-54
2022/09/04 03:33:41;;;;;;;3.20;1.63;;;;;;;12.79;100.00;101406.00;7397337;19;20925;-55
2022/09/04 03:36:16;;;;;;;3.60;1.80;;;;;;;12.76;100.00;101395.50;7388143;19;20417;-53
2022/09/04 03:38:52;;;;;;;3.07;1.53;;;;;;;12.64;100.00;101400.16;7396926;19;20742;-55
2022/09/04 03:41:31;;;;;;;4.50;1.70;;;;;;;12.59;100.00;101394.78;7389282;19;20415;-50
2022/09/04 03:44:11;;;;;;;4.37;1.90;;;;;;;12.56;100.00;101399.81;7396888;19;20427;-54
2022/09/04 03:46:53;;;;;;;2.70;1.40;;;;;;;12.53;100.00;101402.28;7387532;19;20521;-49
2022/09/04 03:49:37;;;;;;;3.87;1.80;;;;;;;12.41;100.00;101393.16;7397542;19;20431;-50
2022/09/04 03:52:11;;;;;;;4.40;1.93;;;;;;;12.40;100.00;101393.97;7387501;19;20959;-51
2022/09/04 03:54:59;;;;;;;5.70;1.70;;;;;;;12.34;100.00;101391.09;7395508;19;20427;-54
2022/09/04 03:57:48;;;;;;;9.17;2.80;;;;;;;12.40;100.00;101403.41;7397931;19;20427;-53
2022/09/04 04:00:19;;;;;;;5.40;1.70;;;;;;;12.41;100.00;101390.56;7386570;19;20935;-54
2022/09/04 04:03:13;;;;;;;4.33;2.30;;;;;;;12.33;100.00;101391.94;7395841;19;20396;-50
2022/09/04 04:05:55;;;;;;;6.70;1.70;;;;;;;12.17;100.00;101404.97;7383311;19;20791;-54
2022/09/04 04:08:44;;;;;;;5.97;1.90;;;;;;;12.16;100.00;101409.28;7397044;19;20393;-53
2022/09/04 04:11:25;;;;;;;6.90;1.53;;;;;;;12.11;100.00;101401.28;7386015;19;20430;-51
2022/09/04 04:14:18;;;;;;;5.60;2.27;;;;;;;12.05;100.00;101395.84;7395952;19;20407;-56
2022/09/04 04:16:55;;;;;;;4.80;1.90;;;;;;;12.11;100.00;101405.59;7386796;19;20404;-50
2022/09/04 04:19:41;;;;;;;3.40;1.80;;;;;;;12.09;100.00;101417.56;7393436;19;20917;-55
2022/09/04 04:22:58;;;;;;;4.90;1.60;;;;;;;11.96;100.00;101405.75;7400068;19;20460;-53
2022/09/04 04:25:58;;;;;;;4.00;1.33;;;;;;;11.91;100.00;101408.13;7384795;19;20411;-49
2022/09/04 04:28:55;;;;;;;3.20;1.73;;;;;;;11.98;100.00;101410.16;7399368;19;20413;-55
2022/09/04 04:31:33;;;;;;;3.30;1.77;;;;;;;11.93;100.00;101406.47;7386269;19;20956;-50
2022/09/04 04:34:09;;;;;;;4.83;1.90;;;;;;;11.93;100.00;101408.16;7394858;19;20434;-53
2022/09/04 04:36:46;;;;;;;3.03;1.50;;;;;;;11.88;100.00;101408.84;7381471;19;20415;-54
2022/09/04 04:39:21;;;;;;;2.80;1.30;;;;;;;11.80;100.00;101412.75;7395095;19;20381;-47
2022/09/04 04:42:17;;;;;;;5.20;1.70;;;;;;;11.82;100.00;101403.41;7387142;19;20418;-51
2022/09/04 04:48:40;;;;;;;2.93;1.43;;;;;;;12.06;100.00;101402.81;7396250;19;20391;-54
2022/09/04 04:51:19;;;;;;;5.70;1.40;;;;;;;12.06;100.00;101404.50;7384235;19;20763;-51
2022/09/04 04:53:55;;;;;;;4.63;1.67;;;;;;;12.13;100.00;101410.03;7394792;19;20394;-52
2022/09/04 04:56:30;;;;;;;4.03;1.80;;;;;;;12.14;100.00;101405.72;7385601;19;20419;-53
2022/09/04 04:59:19;;;;;;;5.00;1.70;;;;;;;12.21;100.00;101406.91;7394553;19;20383;-55
2022/09/04 05:01:55;;;;;;;5.07;1.67;;;;;;;12.17;100.00;101417.91;7385485;19;20419;-52
2022/09/04 05:04:33;;;;;;;4.73;1.90;;;;;;;12.76;100.00;101417.94;7393424;19;20411;-55
2022/09/04 05:07:07;;;;;;;13.47;5.97;;;;;;;13.03;100.00;101428.56;7385088;19;20422;-50
2022/09/04 05:09:41;;;;;;;13.30;6.53;;;;;;;13.12;100.00;101434.97;7395103;19;20964;-53
2022/09/04 05:12:17;;;;;;;21.17;11.10;;;;;;;13.17;100.00;101443.84;7394101;19;20407;-53
2022/09/04 05:14:55;;;;;;;20.70;10.40;;;;;;;13.01;100.00;101452.63;7384414;19;20940;-53
2022/09/04 05:17:34;;;;;;;7.10;2.63;;;;;;;12.92;100.00;101460.91;7394260;19;20477;-50
2022/09/04 05:20:25;;;;;;;9.87;5.27;;;;;;;13.07;100.00;101477.09;7376714;19;20431;-55
2022/09/04 05:23:07;;;;;;;14.80;7.30;;;;;;;13.26;100.00;101487.34;7394065;19;21578;-54
2022/09/04 05:25:40;;;;;;;7.60;4.53;;;;;;;13.27;100.00;101508.16;7383496;19;20402;-56
2022/09/04 05:28:22;;;;;;;6.33;3.20;;;;;;;13.47;100.00;101514.22;7398970;19;20405;-51
2022/09/04 05:31:02;;;;;;;5.97;2.63;;;;;;;13.49;100.00;101516.91;7385029;19;20429;-53
2022/09/04 05:33:37;;;;;;;10.00;2.93;;;;;;;13.54;100.00;101524.84;7393430;19;20383;-53
2022/09/04 05:36:14;;;;;;;7.70;2.90;;;;;;;13.57;100.00;101524.97;7381954;19;20417;-54
2022/09/04 05:38:53;;;;;;;4.10;1.60;;;;;;;13.54;100.00;101543.00;7395573;19;20401;-50
2022/09/04 05:41:34;;;;;;;4.57;2.20;;;;;;;13.58;100.00;101548.38;7385967;19;20407;-56
2022/09/04 05:44:16;;;;;;;5.50;1.80;;;;;;;13.63;100.00;101552.06;7393003;19;20423;-55
2022/09/04 05:46:55;;;;;;;4.07;1.97;;;;;;;13.55;100.00;101558.63;7386749;19;20415;-51
2022/09/04 05:49:37;;;;;;;5.00;1.83;;;;;;;13.62;100.00;101557.16;7393450;19;21228;-51
2022/09/04 05:52:20;;;;;;;5.20;1.87;;;;;;;13.91;100.00;101567.88;7383822;19;20830;-49
2022/09/04 05:55:30;;;;;;;5.47;2.40;;;;;;;13.86;100.00;101570.28;7377254;19;20419;-52
2022/09/04 05:58:09;;;;;;;4.47;1.97;;;;;;;13.50;100.00;101573.97;7391867;19;20946;-53
2022/09/04 06:00:47;;;;;;;5.50;1.90;;;;;;;13.65;100.00;101578.06;7381341;19;20419;-54
2022/09/04 06:03:31;;;;;;;6.23;2.10;;;;;;;13.85;100.00;101575.41;7391475;19;20384;-54
2022/09/04 06:06:16;;;;;;;5.00;2.50;;;;;;;13.90;100.00;101577.34;7371802;19;20424;-51
2022/09/04 06:09:14;;;;;;;5.20;2.70;;;;;;;13.90;100.00;101586.88;7393473;19;20391;-53
2022/09/04 06:12:02;;;;;;;6.23;2.53;;;;;;;13.90;100.00;101581.69;7385614;19;20414;-50
2022/09/04 06:14:57;;;;;;;7.47;3.10;;;;;;;13.90;100.00;101587.72;7391741;19;20404;-52
2022/09/04 06:17:36;;;;;;;23.20;12.80;;;;;;;14.05;100.00;101586.56;7390356;19;20413;-48
2022/09/04 06:20:47;;;;;;;11.00;6.20;;;;;;;14.04;100.00;101593.50;7382936;19;20413;-50
2022/09/04 06:23:41;;;;;;;15.00;8.13;;;;;;;14.08;100.00;101601.38;7390935;19;20418;-54
2022/09/04 06:26:23;;;;;;;22.50;11.33;;;;;;;14.48;100.00;101607.28;7384539;19;20444;-52
2022/09/04 06:29:16;;;;;;;15.10;4.13;;;;;;;14.44;100.00;101614.97;7392679;19;20388;-56
2022/09/04 06:32:03;;;;;;;8.07;4.43;;;;;;;14.81;100.00;101619.84;7384259;19;20417;-54
2022/09/04 06:34:59;;;;;;;9.77;3.40;;;;;;;14.69;100.00;101618.53;7390713;19;20484;-56
2022/09/04 06:37:37;;;;;;;17.30;4.70;;;;;;;14.92;100.00;101623.72;7392044;19;20431;-57
2022/09/04 06:40:19;;;;;;;12.53;2.90;;;;;;;14.89;100.00;101639.22;7384057;19;20399;-56
2022/09/04 06:42:57;;;;;;;49.13;15.07;;;;;;;15.10;100.00;101636.53;7393882;19;20744;-52
2022/09/04 06:45:34;;;;;;;87.97;38.10;;;;;;;15.12;100.00;101631.38;7390684;19;20502;-52
2022/09/04 06:48:13;;;;;;;8.37;4.03;;;;;;;15.16;100.00;101638.47;7400044;19;20398;-47
2022/09/04 06:50:50;;;;;;;10.40;3.53;;;;;;;15.36;100.00;101643.50;7389555;19;20415;-52
2022/09/04 06:53:28;;;;;;;32.77;14.00;;;;;;;15.44;100.00;101647.25;7398490;19;20742;-53
2022/09/04 06:56:09;;;;;;;29.43;14.13;;;;;;;15.48;100.00;101650.88;7390546;19;20421;-56
2022/09/04 06:59:18;;;;;;;5.27;2.80;;;;;;;15.44;100.00;101649.88;7399752;19;20385;-54
2022/09/04 07:01:59;;;;;;;8.03;3.73;;;;;;;15.44;100.00;101662.88;7389738;19;20418;-55
2022/09/04 07:04:47;;;;;;;4.50;1.93;;;;;;;15.55;100.00;101654.56;7397088;19;20427;-53
2022/09/04 07:07:23;;;;;;;4.30;1.90;;;;;;;15.50;100.00;101651.81;7397800;19;20923;-54
2022/09/04 07:09:56;;;;;;;4.77;1.93;;;;;;;15.56;100.00;101653.72;7388268;19;20386;-59
2022/09/04 07:12:55;;;;;;;7.20;2.17;;;;;;;15.56;100.00;101659.84;7398784;19;20783;-53
2022/09/04 07:15:47;;;;;;;9.70;2.87;;;;;;;15.71;100.00;101656.91;7387416;19;20411;-54
2022/09/04 07:18:31;;;;;;;5.93;2.53;;;;;;;15.72;100.00;101665.56;7398585;19;20914;-57
2022/09/04 07:21:05;;;;;;;3.60;1.90;;;;;;;15.83;100.00;101665.97;7390798;19;20421;-59
2022/09/04 07:23:43;;;;;;;5.27;1.90;;;;;;;15.85;100.00;101669.50;7397788;19;20399;-51
2022/09/04 07:26:27;;;;;;;10.30;2.13;;;;;;;15.97;100.00;101667.34;7391592;19;20776;-54
2022/09/04 07:29:11;;;;;;;4.97;2.40;;;;;;;16.04;100.00;101664.09;7398756;19;20407;-54
2022/09/04 07:31:44;;;;;;;11.03;2.40;;;;;;;16.04;100.00;101669.31;7389607;19;20431;-55
2022/09/04 07:34:18;;;;;;;3.30;1.80;;;;;;;16.10;100.00;101672.97;7396387;19;20935;-55
2022/09/04 07:36:54;;;;;;;5.80;3.03;;;;;;;16.18;100.00;101676.69;7393669;19;20438;-55
2022/09/04 07:39:30;;;;;;;5.50;2.47;;;;;;;16.23;100.00;101682.94;7397807;19;20391;-54
2022/09/04 07:42:05;;;;;;;5.57;2.40;;;;;;;16.39;100.00;101688.66;7387795;19;20433;-53
2022/09/04 07:44:43;;;;;;;6.43;2.33;;;;;;;16.51;100.00;101686.44;7396170;19;20418;-54
2022/09/04 07:47:18;;;;;;;5.33;2.33;;;;;;;16.57;100.00;101694.44;7396728;19;20411;-56
2022/09/04 07:49:55;;;;;;;4.30;1.83;;;;;;;16.66;100.00;101696.47;7390163;19;20983;-52
2022/09/04 07:52:40;;;;;;;5.60;2.70;;;;;;;16.66;100.00;101690.38;7397225;19;20922;-55
2022/09/04 07:55:25;;;;;;;11.03;3.00;;;;;;;16.81;100.00;101693.44;7377570;19;20419;-57
2022/09/04 07:58:10;;;;;;;7.60;2.83;;;;;;;16.90;100.00;101697.16;7397894;19;20384;-56
2022/09/04 08:00:53;;;;;;;16.30;10.00;;;;;;;16.98;100.00;101701.78;7381316;19;20446;-53
2022/09/04 08:03:33;;;;;;;8.67;2.80;;;;;;;17.06;100.00;101703.75;7393995;19;20733;-56
2022/09/04 08:06:10;;;;;;;19.90;9.50;;;;;;;17.28;100.00;101705.31;7382496;19;20441;-56
2022/09/04 08:08:52;;;;;;;10.20;3.73;;;;;;;17.41;100.00;101706.53;7400149;19;20477;-51
2022/09/04 08:12:04;;;;;;;13.33;7.97;;;;;;;17.46;100.00;101709.25;7389690;19;20433;-52
2022/09/04 08:14:54;;;;;;;19.47;12.50;;;;;;;17.46;100.00;101704.03;7393514;19;20937;-53
2022/09/04 08:18:02;;;;;;;10.70;3.67;;;;;;;17.48;100.00;101710.22;7396095;19;20926;-54
2022/09/04 08:20:40;;;;;;;7.60;3.20;;;;;;;17.53;100.00;101725.13;7388730;19;20439;-53
2022/09/04 08:23:23;;;;;;;11.83;4.20;;;;;;;17.55;100.00;101719.97;7396076;19;20394;-51
2022/09/04 08:25:58;;;;;;;6.23;3.50;;;;;;;17.59;100.00;101724.41;7387232;19;20440;-55
2022/09/04 08:28:37;;;;;;;8.53;4.73;;;;;;;17.70;100.00;101731.66;7397079;19;20398;-51
2022/09/04 08:31:19;;;;;;;7.93;4.17;;;;;;;17.79;100.00;101729.34;7387740;19;20494;-56
2022/09/04 08:34:21;;;;;;;6.73;3.60;;;;;;;17.78;100.00;101733.66;7395294;19;20423;-59
2022/09/04 08:36:59;;;;;;;6.37;3.50;;;;;;;17.85;100.00;101739.94;7384600;19;20429;-50
2022/09/04 08:39:36;;;;;;;7.37;2.90;;;;;;;17.98;100.00;101740.25;7395976;19;20725;-54
2022/09/04 08:42:32;;;;;;;5.00;2.83;;;;;;;18.09;100.00;101738.84;7385668;19;20769;-55
2022/09/04 08:45:34;;;;;;;8.07;3.73;;;;;;;18.25;100.00;101732.28;7390941;19;20423;-49
2022/09/04 08:48:55;;;;;;;5.63;2.80;;;;;;;18.32;100.00;101735.94;7398289;19;20986;-57
2022/09/04 08:51:43;;;;;;;5.70;3.10;;;;;;;18.32;100.00;101731.59;7388766;19;20438;-49
2022/09/04 08:54:41;;;;;;;5.30;3.20;;;;;;;18.42;100.00;101737.94;7393849;19;20411;-56
2022/09/04 08:57:31;;;;;;;9.27;3.53;;;;;;;18.46;100.00;101728.47;7394070;19;20422;-55
2022/09/04 09:00:11;;;;;;;7.07;3.30;;;;;;;18.57;100.00;101728.72;7386381;19;20388;-51
2022/09/04 09:03:16;;;;;;;8.87;3.80;;;;;;;18.61;100.00;101727.94;7393068;19;20395;-54
2022/09/04 09:06:19;;;;;;;11.97;6.50;;;;;;;18.79;100.00;101734.44;7387909;19;20403;-52
2022/09/04 09:09:09;;;;;;;7.23;2.90;;;;;;;18.87;100.00;101741.59;7395370;19;20391;-51
2022/09/04 09:12:00;;;;;;;4.70;2.87;;;;;;;19.00;100.00;101734.03;7384254;19;20419;-58
2022/09/04 09:14:44;;;;;;;12.67;3.93;;;;;;;19.12;100.00;101738.72;7392958;19;20429;-54
2022/09/04 09:17:15;;;;;;;10.60;2.80;;;;;;;19.04;100.00;101733.31;7396366;19;20435;-50
2022/09/04 09:20:00;;;;;;;8.83;3.17;;;;;;;19.15;100.00;101731.81;7383423;19;20749;-57
2022/09/04 09:22:54;;;;;;;4.83;2.73;;;;;;;19.28;100.00;101727.72;7393011;19;20383;-53
2022/09/04 09:25:26;;;;;;;7.83;3.33;;;;;;;19.38;100.00;101725.31;7378691;19;20427;-52
2022/09/04 09:28:39;;;;;;;5.00;3.13;;;;;;;19.41;100.00;101735.81;7394496;19;20391;-54
2022/09/04 09:31:39;;;;;;;5.83;2.90;;;;;;;19.51;100.00;101732.53;7386169;19;20771;-54
2022/09/04 09:34:44;;;;;;;5.47;3.13;;;;;;;19.59;100.00;101731.81;7392548;19;20751;-55
2022/09/04 09:37:34;;;;;;;5.60;2.87;;;;;;;19.78;100.00;101744.41;7391067;19;20414;-57
2022/09/04 09:40:18;;;;;;;9.30;4.57;;;;;;;19.82;100.00;101738.38;7376805;19;20443;-53
2022/09/04 09:43:03;;;;;;;14.30;4.50;;;;;;;19.92;100.00;101735.91;7395545;19;20399;-53
2022/09/04 09:45:52;;;;;;;5.90;3.20;;;;;;;19.87;100.00;101737.56;7383949;19;20417;-52
2022/09/04 09:48:41;;;;;;;14.10;4.67;;;;;;;20.02;100.00;101731.75;7393616;19;20402;-53
2022/09/04 09:51:42;;;;;;;8.03;4.07;;;;;;;20.26;100.00;101727.81;7383044;19;20458;-54
2022/09/04 09:54:33;;;;;;;7.20;3.77;;;;;;;20.52;100.00;101723.00;7391772;19;20419;-56
2022/09/04 09:57:38;;;;;;;6.93;3.73;;;;;;;20.61;100.00;101728.38;7376516;19;20490;-53
2022/09/04 10:00:11;;;;;;;7.23;2.90;;;;;;;20.50;100.00;101716.84;7374502;19;20410;-50
2022/09/04 10:03:16;;;;;;;6.73;2.70;;;;;;;20.57;100.00;101710.88;7391534;19;20376;-46
2022/09/04 10:06:33;;;;;;;8.50;3.43;;;;;;;20.69;100.00;101714.50;7378180;19;20422;-57
2022/09/04 10:09:31;;;;;;;8.70;3.90;;;;;;;20.80;100.00;101717.31;7391808;19;20723;-54
2022/09/04 10:12:22;;;;;;;6.63;3.40;;;;;;;20.74;100.00;101712.84;7365211;19;20787;-51
2022/09/04 10:15:10;;;;;;;9.07;3.33;;;;;;;20.93;100.00;101713.13;7380980;19;20407;-51
2022/09/04 10:17:58;;;;;;;7.53;2.83;;;;;;;21.05;100.00;101713.28;7394675;19;20392;-51
2022/09/04 10:20:45;;;;;;;7.80;2.73;;;;;;;21.08;100.00;101715.97;7384022;19;20425;-56
2022/09/04 10:23:38;;;;;;;5.63;3.03;;;;;;;21.24;100.00;101718.78;7399638;19;20414;-56
2022/09/04 10:26:29;;;;;;;6.47;3.77;;;;;;;21.45;100.00;101712.91;7389316;19;20419;-56
2022/09/04 10:29:28;;;;;;;7.13;3.27;;;;;;;21.51;100.00;101722.59;7401296;19;20391;-52
2022/09/04 10:32:24;;;;;;;6.37;2.70;;;;;;;21.49;98.85;101719.09;7390267;19;21004;-51
2022/09/04 10:35:09;;;;;;;6.70;4.17;;;;;;;21.76;100.00;101715.91;7391092;19;20427;-52
2022/09/04 10:37:58;;;;;;;7.33;3.73;;;;;;;21.64;99.33;101723.63;7399793;19;20450;-58
2022/09/04 10:40:39;;;;;;;6.43;3.40;;;;;;;21.65;98.50;101728.00;7392105;19;20452;-56
2022/09/04 10:43:37;;;;;;;8.33;4.30;;;;;;;21.75;96.46;101726.41;7396884;19;20430;-53
2022/09/04 10:46:11;;;;;;;6.17;3.37;;;;;;;21.73;95.14;101723.75;7391550;19;20419;-59
2022/09/04 10:49:30;;;;;;;9.70;3.60;;;;;;;21.67;95.77;101729.78;7400508;19;20383;-48
2022/09/04 10:52:23;;;;;;;8.27;4.13;;;;;;;21.97;96.02;101717.88;7393550;19;20472;-55
2022/09/04 10:55:27;;;;;;;12.10;6.40;;;;;;;22.23;94.52;101711.97;7391396;19;20759;-52
2022/09/04 10:58:29;;;;;;;6.90;3.90;;;;;;;22.19;92.72;101720.69;7399536;19;20402;-55
2022/09/04 11:01:26;;;;;;;7.30;3.80;;;;;;;22.25;91.94;101723.38;7390058;19;20406;-56
2022/09/04 11:04:13;;;;;;;7.93;3.97;;;;;;;22.17;90.33;101717.19;7397680;19;20431;-54
2022/09/04 11:07:07;;;;;;;6.03;3.10;;;;;;;22.09;91.81;101713.56;7392414;19;20424;-56
2022/09/04 11:09:59;;;;;;;4.90;3.10;;;;;;;22.32;91.75;101723.41;7398097;19;20953;-50
2022/09/04 11:12:45;;;;;;;6.30;3.13;;;;;;;22.46;90.94;101713.88;7396535;19;20427;-52
2022/09/04 11:15:50;;;;;;;6.40;3.17;;;;;;;22.54;89.78;101710.47;7392063;19;20413;-56
2022/09/04 11:18:47;;;;;;;6.60;3.40;;;;;;;22.50;87.80;101707.78;7394629;19;20403;-55
2022/09/04 11:21:34;;;;;;;8.63;4.40;;;;;;;22.54;89.38;101706.09;7392566;19;20415;-54
2022/09/04 11:24:34;;;;;;;10.47;3.33;;;;;;;22.73;88.48;101706.22;7394942;19;20779;-51
2022/09/04 11:27:28;;;;;;;7.47;4.00;;;;;;;22.73;86.73;101706.22;7391429;19;20937;-52
2022/09/04 11:30:04;;;;;;;15.63;6.10;;;;;;;22.81;87.42;101695.75;7390637;19;20390;-54
2022/09/04 11:32:52;;;;;;;11.63;5.50;;;;;;;22.63;86.27;101695.66;7398580;19;20459;-53
2022/09/04 11:35:59;;;;;;;12.70;7.10;;;;;;;22.72;87.17;101691.31;7388705;19;20414;-54
2022/09/04 11:38:46;;;;;;;8.77;4.57;;;;;;;22.68;87.77;101695.66;7394867;19;20391;-50
2022/09/04 11:41:42;;;;;;;10.17;4.80;;;;;;;22.62;86.97;101693.00;7391408;19;20411;-50
2022/09/04 11:44:34;;;;;;;5.67;2.77;;;;;;;22.69;85.06;101691.28;7398015;19;20442;-56
2022/09/04 11:47:32;;;;;;;5.37;3.00;;;;;;;22.83;86.06;101694.88;7390786;19;20411;-53
2022/09/04 11:50:28;;;;;;;9.33;5.00;;;;;;;23.11;86.29;101699.41;7390778;19;20973;-56
2022/09/04 11:53:23;;;;;;;5.60;2.77;;;;;;;22.78;83.09;101694.81;7399453;19;20396;-57
2022/09/04 11:56:15;;;;;;;8.27;3.80;;;;;;;22.77;83.05;101689.59;7390109;19;20414;-58
2022/09/04 11:59:05;;;;;;;7.90;3.20;;;;;;;22.85;82.03;101689.59;7396267;19;20383;-54
2022/09/04 12:01:51;;;;;;;10.03;5.33;;;;;;;22.77;81.70;101685.19;7397638;19;20402;-54
2022/09/04 12:04:30;;;;;;;15.13;5.00;;;;;;;22.87;82.27;101695.78;7385115;19;20415;-52
2022/09/04 12:07:13;;;;;;;12.57;8.23;;;;;;;22.91;79.95;101694.91;7397278;19;20388;-52
2022/09/04 12:10:15;;;;;;;7.40;2.53;;;;;;;22.82;79.78;101690.50;7382744;19;20757;-54
2022/09/04 12:13:26;;;;;;;4.67;2.63;;;;;;;23.03;80.39;101702.00;7396456;19;20391;-59
2022/09/04 12:16:22;;;;;;;5.50;2.33;;;;;;;23.18;77.29;101691.50;7396031;19;20414;-51
2022/09/04 12:19:13;;;;;;;6.60;3.73;;;;;;;23.27;78.75;101698.56;7390892;19;20412;-54
2022/09/04 12:22:16;;;;;;;13.40;4.00;;;;;;;23.46;76.95;101690.75;7401225;19;20925;-54
2022/09/04 12:24:58;;;;;;;6.27;3.07;;;;;;;23.70;76.53;101699.59;7389569;19;20929;-57
2022/09/04 12:27:54;;;;;;;7.50;3.50;;;;;;;23.95;75.42;101682.06;7396489;19;20388;-53
2022/09/04 12:30:30;;;;;;;7.40;3.67;;;;;;;23.63;75.12;101682.91;7390287;19;20463;-58
2022/09/04 12:33:25;;;;;;;8.60;4.13;;;;;;;23.70;74.76;101687.28;7395874;19;20394;-60
2022/09/04 12:36:36;;;;;;;12.13;6.27;;;;;;;23.64;74.62;101683.78;7395371;19;20403;-56
2022/09/04 12:39:20;;;;;;;7.53;4.07;;;;;;;24.06;73.05;101683.81;7388907;19;20422;-54
2022/09/04 12:41:55;;;;;;;5.60;3.10;;;;;;;24.07;72.36;101681.22;7394480;19;20463;-55